BFIBOEING FIELD/KING COUNTY INTL
METARs for nearby airports:
N 0 21' KBFI 170853Z 00000KT 10SM CLR 21/11 A2998
SE 4 32' KRNT 170853Z 12004KT 10SM CLR 19/12 A2998
S 4 432' KSEA 170853Z 17003KT 10SM CLR 20/10 A3000
W 18 444' KPWT 170856Z 00000KT 10SM CLR 14/12 A3000
SW 19 294' KTIW 170853Z 26003KT 10SM CLR 18/12 A2999
N 22 607' KPAE 170853Z 01004KT 10SM CLR 21/08 A3001
S 24 322' KTCM 170858Z 00000KT 10SM CLR 19/13 A3000
S 25 537' KPLU 170855Z 00000KT 10SM CLR 17/13 A3000
S 29 300' KGRF 170758Z 00000KT 10SM CLR 20/12 A2999
N 38 141' KAWO 170856Z 32003KT 10SM CLR 14/12 A3000
SW 38 272' KSHN 170853Z 25010KT 10SM CLR 15/13 A2998
SW 41 207' KOLM 170854Z 00000KT 10SM CLR 15/09 A3000
N 51 47' KNUW 170856Z 15006KT 10SM CLR 16/09 A3002
N 56 145' KBVS 170855Z 00000KT 10SM CLR 15/11 A2998
NW 57 13' KNOW 170855Z 28007KT 10SM CLR 14/11 A2999
SW 58 177' KCLS 170855Z 21004KT 10SM CLR 16/13 A3001
NW 59 291' KCLM 170853Z 29004KT 10SM CLR 15/12 A2999
NW 66 112' KFHR 170853Z 00000KT 10SM CLR 12/09 A2998
SW 74 17' KHQM 170853Z 24006KT 6SM BR OVC006 16/14 A3004
N 74 34' KORS 170855Z 16004KT 10SM CLR 17/11 A2996
N 76 171' KBLI 170853Z 18005KT 10SM CLR 17/13 A2997
E 78 1763' KELN 170853Z 31009KT 10SM CLR 22/07 A2996
NW 80 64' CYYJ 170800Z 00000KT 30SM SKC 17/12 A2996
E 85 1248' KEAT 170855Z 32008KT 10SM CLR 27/09 A2992
S 88 20' KKLS 170856Z 33005KT 10SM OVC010 17/14 A3003
SE 92 1098' KYKM 170853Z 33005KT 10SM CLR 23/09 A2992
W 94 193' KUIL 170853Z 00000KT 1/2SM FG VV002 13/12 A3002
TAFs for nearby airports:
N 0 21' KBFI TAF KBFI 170525Z 1706/1806 36006KT P6SM SKC
  FM170900 20005KT P6SM SKC
  FM171800 23008KT P6SM SKC
S 4 432' KSEA TAF
  AMD KSEA 170843Z 1709/1812 VRB04KT P6SM SKC
  FM171200 20004KT P6SM SKC
  FM171800 23008KT P6SM SKC
W 18 444' KPWT TAF KPWT 170525Z 1706/1806 VRB04KT P6SM SKC
  FM170900 20004KT P6SM SKC
N 22 607' KPAE KPAE 170525Z 1706/1806 35004KT P6SM SKC
  FM170900 VRB04KT P6SM SKC
  FM171800 23005KT P6SM SKC
S 24 322' KTCM TAF KTCM 170501Z 1705/1811 28006KT 9999 SKC QNH2994INS
  BECMG 1710/1711 24006KT 9999 FEW250 QNH2998INS
  TEMPO 1800/1805 25012G18KT
  BECMG 1805/1806 22009KT 9999 BKN015 QNH3001INS TX29/1723Z TN15/1712Z
S 29 300' KGRF TAF KGRF 170501Z 1705/1811 28006KT 9999 SKC QNH2994INS
  BECMG 1710/1711 24006KT 9999 FEW250 QNH2998INS
  TEMPO 1800/1805 25012G18KT
  BECMG 1805/1806 22009KT 9999 BKN015 QNH3001INS TX29/1723Z TN15/1712Z
SW 41 207' KOLM TAF KOLM 170525Z 1706/1806 18003KT P6SM SKC
  FM170900 22004KT P6SM SKC
N 51 47' KNUW TAF KNUW 1707/1807 VRB06KT 9999 FEW250 QNH2994INS
  TEMPO 1710/1716 4800 BR FEW020 T13/1712Z T22/1721Z FS30024
NW 59 291' KCLM TAF KCLM 170525Z 1706/1806 28005KT P6SM SKC
  FM180000 29012KT P6SM SKC
SW 74 17' KHQM TAF KHQM 170525Z 1706/1806 22007KT 6SM BR OVC008
  FM172000 23013KT P6SM OVC015
  FM172200 23013KT P6SM SCT025
  FM180300 25012KT P6SM OVC012
N 76 171' KBLI KBLI 170525Z 1706/1806 17006KT P6SM SKC
E 85 1248' KEAT TAF KEAT 170538Z 1706/1806 10007KT P6SM SCT250
  FM170645 31008KT P6SM SCT250
  FM171800 VRB04KT P6SM SKC
  FM180100 29012G20KT P6SM SKC
SE 92 1098' KYKM KYKM 170534Z 1706/1806 28007KT P6SM SCT250
  FM172000 25010KT P6SM SCT250
  FM180200 28014KT P6SM SCT250
Area forecast:
000
FAUS46 KKCI 101945
FA6W  
SFOC FA 101945
SYNOPSIS AND VFR CLDS/WX
SYNOPSIS VALID UNTIL 111400
CLDS/WX VALID UNTIL 110800...OTLK VALID 110800-111400
WA OR CA AND CSTL WTRS
.
SEE AIRMET SIERRA FOR IFR CONDS AND MTN OBSCN.
TS IMPLY SEV OR GTR TURB SEV ICE LLWS AND IFR CONDS.
NON MSL HGTS DENOTED BY AGL OR CIG.
.
SYNOPSIS...UPR LVL TROF WAS LOCATED NR 130W. MOIST SWLY FLOW
EXTDS FROM PAC NW EWD INTO NRN ROCKIES. HIGH PRES RIDGE WAS OVR
MUCH OF THE REST OF THE AREA. BY 14Z...UPR LVL TROF WILL EXTD
FROM WA-OR SWD INTO CA.  ..STREIB..
.
WA CASCDS WWD
CSTL SXNS
CSTLN-INLAND...SCT-BKN025 BKN035-050 TOPS 120-140. ISOL -SHRA.
   OTLK...MVFR CIGS SHRA BR.
PUGET SOUND-INTR VLY...SCT-BKN020 BKN-OVC035-050 TOPS 160 BKN CI.
   WDLY SCT -SHRA. OTLK...MVFR CIGS SHRA.
CASCDS...BKN-OVC050-070 TOPS FL180. BKN CI ABV. WDLY SCT -SHRA.
   OTLK...MVFR CIGS SHRA.
.
WA E OF CASCDS
CNTRL WA...SCT140 OVC CI. BECMG 2302 SCT080 BKN120 LYRD FL240.
   OTLK...VFR.
ERN WA...SCT-BKN140-160 LYRD FL240. BECMG 0508 BKN080 OVC120
   LYRD FL240 ISOL -SHRA DVLPG. OTLK...VFR.
.
OR CASCDS WWD
CSTL SXNS
CSTLN-INLAND...SCT-BKN020 BKN-OVC035-050 TOPS FL180. WDLY SCT
   -SHRA. OTLK...MVFR CIGS SHRA.
WILLAMETTE VLY/SWRN INTR...SCT-BKN020 BKN-OVC035-050 TOPS FL180.
   WDLY SCT -SHRA. OTLK...MVFR CIGS SHRA.
CASCDS...SCT-BKN060 BKN-OVC080-100 TOPS FL180 ISOL -SHRA.
   OTLK...MVFR CIGS SHRA.
.
OR E OF CASCDS
CNTRL...SCT100-120 BKN150 LYRD FL240. OTLK...VFR.
ERN...SCT130-150 BKN CI. BECMG 0205 OVC120-140 LYRD FL240.
   OTLK...VFR.
.
NRN CA...STS-SAC-TVL LN NWD
CSTL SXNS...
   FOT NWD...SCT025 BKN CI ABV. BECMG 0205 SCT020 OVC050 TOPS
      160. ISOL -SHRA. OTLK...IFR CIGS.
   S OF FOT...SCT-BKN010 TOPS 030-040. OTLK...IFR CIGS.
REST OF AREA...SKC OCNL SCT CI. OCNL VYS 3-5SM FU HZ.
   OTLK...VFR.
SAC VLY...
   NRN AND CNTRL SXNS...SKC. OTLK...VFR.
   SRN SXNS...SKC. OCNL VIS 3-5SM FU HZ. OTLK...MVFR FU HZ.
SHASTA-SISKIYOUS-NERN CA...
NRN SIERRAS...SKC OCNL SCT CI. WINDS SLY G25KT. OTLK...VFR WIND.
.
CNTRL CA
CSTL SXNS...
   CSTLN...SKC OCNL SCT010. BECMG 0508 OCNL CIGS BKN-SCT010 TOPS
      020-030. OTLK...IFR CIGS.
   INLAND...SKC. OTLK...VFR BECMG 1114 IFR CIGS BR.
SAN JOAQUIN VLY...SKC. OTLK...VFR.
SRN SIERRAS..SKC. OTLK...VFR.
.
SRN CA..VBG-NID-60NNW BIH LN SWD
CSTL SXNS...
   CSTLN...
      EXTRM SRN SXNS...SKC. BECMG 0205 SCT010. BECMG 0508 CIGS
         BKN-OVC010 TOPS 030. OTLK...IFR CIGS.
      REST OF AREA...SKC. OTLK...VFR BECMG 0811 IFR CIGS BR.
   INLAND...SKC OCNL FEW CI. OTLK...VFR.
INTR MTNS-MOJAVE-SRN DESERTS...SKC OCNL FEW CI. OTLK...VFR.
.
CSTL WTRS
WA...SCT-BKN035-050 TOPS 100-120. ISOL -SHRA. OTLK...VFR.
OR...
NWRN HLF...SCT-BKN035-050 TOPS 100-120. ISOL -SHRA. OTLK...VFR.
SERN HLF...SCT-BKN025 BKN035-050 TOPS FL180 BKN CI ABV. WDLY SCT
   -SHRA. OTLK...MVFR CIGS SHRA.
CA...
NRN CA...
   FOT NWD...SCT025 BKN CI ABV. BECMG 0205 SCT020 OVC050 TOPS
      160. ISOL -SHRA. OTLK...IFR CIGS.
   S OF FOT...SCT-BKN010 TOPS 030-040. OTLK...IFR CIGS.
CNTRL CA...SCT-BKN010 TOPS 030-040. OTLK...IFR CIGS.
SRN CA...
   OUTER CSTL WTRS...CIGS BKN010-020 TOPS 030-050.
      OTLK...IFR CIGS.
   ADJ CSTL WTRS...SKC. OCNL AGL SCT010. OTLK...VFR BECMG 0811
      IFR CIGS BR.
.
THE AREA FORECAST WILL TERMINATE AT 2359Z ON 10 OCTOBER 2017. IN
PLACE OF THE AREA FORECAST...PLEASE SEE THE GRAPHICAL FORECAST AT
WWW.AVIATIONWEATHER.GOV/GFA. GRAPHICAL AND TEXT AIRMETS WILL
CONTINUE AS REGULARLY SCHEDULED.
....

Shortcut to this page: http://wxbay.com.

Data may contain errors.